createdAt,value
2023-02-04T00:00:34.639Z,0.90
2023-02-04T00:02:36.354Z,0.70
2023-02-04T00:04:40.708Z,1.48
2023-02-04T00:06:50.947Z,1.15
2023-02-04T00:08:52.445Z,0.80
2023-02-04T00:11:03.285Z,0.75
2023-02-04T00:13:07.540Z,2.63
2023-02-04T00:15:15.065Z,1.38
2023-02-04T00:17:19.521Z,2.00
2023-02-04T00:19:21.071Z,1.40
2023-02-04T00:21:25.596Z,2.13
2023-02-04T00:23:45.710Z,1.63
2023-02-04T00:25:47.227Z,2.13
2023-02-04T00:27:54.659Z,1.70
2023-02-04T00:29:57.539Z,2.28
2023-02-04T00:31:59.217Z,2.13
2023-02-04T00:34:06.927Z,1.90
2023-02-04T00:36:08.692Z,1.65
2023-02-04T00:38:13.026Z,2.05
2023-02-04T00:40:14.676Z,1.70
2023-02-04T00:42:22.037Z,1.52
2023-02-04T00:44:23.601Z,1.35
2023-02-04T00:46:25.348Z,1.52
2023-02-04T00:48:34.319Z,2.13
2023-02-04T00:50:39.725Z,1.40
2023-02-04T00:52:41.257Z,1.60
2023-02-04T00:55:01.565Z,2.42
2023-02-04T00:57:03.136Z,1.67
2023-02-04T00:59:04.698Z,1.55
2023-02-04T01:01:06.272Z,1.48
2023-02-04T01:03:08.130Z,1.35
2023-02-04T01:05:10.482Z,1.65
2023-02-04T01:07:12.057Z,1.40
2023-02-04T01:09:19.465Z,1.52
2023-02-04T01:11:21.055Z,1.23
2023-02-04T01:13:28.323Z,1.02
2023-02-04T01:15:38.578Z,1.45
2023-02-04T01:17:41.680Z,1.30
2023-02-04T01:19:43.157Z,1.30
2023-02-04T01:21:47.650Z,1.88
2023-02-04T01:23:54.844Z,1.23
2023-02-04T01:25:56.334Z,1.50
2023-02-04T01:30:02.639Z,1.80
2023-02-04T01:32:04.212Z,1.38
2023-02-04T01:34:05.734Z,1.55
2023-02-04T01:36:07.311Z,1.85
2023-02-04T01:38:14.786Z,1.48
2023-02-04T01:42:20.772Z,1.75
2023-02-04T01:44:22.277Z,1.10
2023-02-04T01:46:24.529Z,1.42
2023-02-04T01:48:28.903Z,1.50
2023-02-04T01:50:50.176Z,1.48
2023-02-04T01:52:57.709Z,1.60
2023-02-04T01:54:59.284Z,1.50
2023-02-04T01:57:00.929Z,1.20
2023-02-04T01:59:21.488Z,1.38
2023-02-04T02:01:41.817Z,1.10
2023-02-04T02:03:43.506Z,0.95
2023-02-04T02:05:49.867Z,1.10
2023-02-04T02:07:53.082Z,2.85
2023-02-04T02:09:57.514Z,1.67
2023-02-04T02:12:03.398Z,0.90
2023-02-04T02:14:11.352Z,1.13
2023-02-04T02:16:18.828Z,1.10
2023-02-04T02:18:26.523Z,1.10
2023-02-04T02:20:29.908Z,0.65
2023-02-04T02:22:50.080Z,0.90
2023-02-04T02:24:57.704Z,0.98
2023-02-04T02:27:02.273Z,0.80
2023-02-04T02:29:04.093Z,1.10
2023-02-04T02:31:11.654Z,0.95
2023-02-04T02:33:17.449Z,1.38
2023-02-04T02:35:18.964Z,0.80
2023-02-04T02:37:20.431Z,0.70
2023-02-04T02:39:22.164Z,0.93
2023-02-04T02:41:23.773Z,1.00
2023-02-04T02:43:31.439Z,0.70
2023-02-04T02:45:33.224Z,1.10
2023-02-04T02:47:34.730Z,0.70
2023-02-04T02:49:42.769Z,1.00
2023-02-04T02:51:44.927Z,0.73
2023-02-04T02:53:47.890Z,1.05
2023-02-04T02:55:49.512Z,0.85
2023-02-04T02:57:54.696Z,0.70
2023-02-04T02:59:56.220Z,0.82
2023-02-04T03:02:01.746Z,0.90
2023-02-04T03:04:09.460Z,1.05
2023-02-04T03:06:13.449Z,1.10
2023-02-04T03:08:20.999Z,0.90
2023-02-04T03:10:22.650Z,0.90
2023-02-04T03:12:26.839Z,0.90
2023-02-04T03:14:47.117Z,1.05
2023-02-04T03:16:48.767Z,1.00
2023-02-04T03:18:56.497Z,1.45
2023-02-04T03:21:16.875Z,1.63
2023-02-04T03:23:24.761Z,1.60
2023-02-04T03:25:28.946Z,0.70
2023-02-04T03:27:33.190Z,1.00
2023-02-04T03:29:44.137Z,1.17
2023-02-04T03:31:48.694Z,0.60
2023-02-04T03:33:50.296Z,0.70
2023-02-04T03:35:52.374Z,0.70
2023-02-04T03:37:59.965Z,0.40
2023-02-04T03:40:07.576Z,0.80
2023-02-04T03:42:09.137Z,0.70
2023-02-04T03:44:10.655Z,1.08
2023-02-04T03:46:16.114Z,0.45
2023-02-04T03:50:40.728Z,0.55
2023-02-04T03:52:42.299Z,0.20
2023-02-04T03:54:43.775Z,0.28
2023-02-04T03:56:45.336Z,0.25
2023-02-04T03:58:49.963Z,0.38
2023-02-04T04:00:57.557Z,0.40
2023-02-04T04:03:05.082Z,0.32
2023-02-04T04:05:25.478Z,0.30
2023-02-04T04:07:32.838Z,0.38
2023-02-04T04:09:34.391Z,0.50
2023-02-04T04:11:41.884Z,0.40
2023-02-04T04:13:49.178Z,0.82
2023-02-04T04:18:00.864Z,0.28
2023-02-04T04:20:05.910Z,1.10
2023-02-04T04:22:10.439Z,0.70
2023-02-04T04:24:18.012Z,0.20
2023-02-04T04:26:26.297Z,0.20
2023-02-04T04:28:27.792Z,0.30
2023-02-04T04:30:34.570Z,0.20
2023-02-04T04:32:54.713Z,0.50
2023-02-04T04:34:56.326Z,0.35
2023-02-04T04:36:58.255Z,0.47
2023-02-04T04:38:59.919Z,0.68
2023-02-04T04:41:01.512Z,0.47
2023-02-04T04:43:03.424Z,0.45
2023-02-04T04:45:08.560Z,0.40
2023-02-04T04:47:10.105Z,0.47
2023-02-04T04:49:11.552Z,0.40
2023-02-04T04:51:19.059Z,0.50
2023-02-04T04:53:26.701Z,0.25
2023-02-04T04:55:28.479Z,0.30
2023-02-04T04:57:36.130Z,0.28
2023-02-04T04:59:37.740Z,0.30
2023-02-04T05:01:39.566Z,0.30
2023-02-04T05:03:41.086Z,0.50
2023-02-04T05:05:48.233Z,0.20
2023-02-04T05:07:52.267Z,0.40
2023-02-04T05:10:05.248Z,1.35
2023-02-04T05:12:22.220Z,0.25
2023-02-04T05:14:33.803Z,0.30
2023-02-04T05:16:43.379Z,0.20
2023-02-04T05:18:55.399Z,0.40
2023-02-04T05:21:14.701Z,0.30
2023-02-04T05:23:45.181Z,0.30
2023-02-04T05:25:56.020Z,0.45
2023-02-04T05:28:14.284Z,0.30
2023-02-04T05:30:31.445Z,0.50
2023-02-04T05:32:44.356Z,0.35
2023-02-04T05:35:04.163Z,0.50
2023-02-04T05:37:34.158Z,0.30
2023-02-04T05:39:46.015Z,0.25
2023-02-04T05:41:49.342Z,0.28
2023-02-04T05:43:50.887Z,0.60
2023-02-04T05:45:52.473Z,0.22
2023-02-04T05:47:54.089Z,0.35
2023-02-04T05:50:01.668Z,0.52
2023-02-04T05:52:03.410Z,0.50
2023-02-04T05:54:23.801Z,0.40
2023-02-04T05:58:33.523Z,0.47
2023-02-04T06:00:35.417Z,0.70
2023-02-04T06:02:55.613Z,0.50
2023-02-04T06:04:57.122Z,1.95
2023-02-04T06:07:04.924Z,0.30
2023-02-04T06:09:06.381Z,0.75
2023-02-04T06:11:07.951Z,0.52
2023-02-04T06:13:09.730Z,0.20
2023-02-04T06:15:14.093Z,0.43
2023-02-04T06:17:21.572Z,0.75
2023-02-04T06:19:29.091Z,0.75
2023-02-04T06:21:30.632Z,0.40
2023-02-04T06:23:34.226Z,0.40
2023-02-04T06:25:36.002Z,0.40
2023-02-04T06:27:37.572Z,0.40
2023-02-04T06:29:39.139Z,0.52
2023-02-04T06:31:40.732Z,0.40
2023-02-04T06:33:48.162Z,0.40
2023-02-04T06:35:55.744Z,0.50
2023-02-04T06:38:00.176Z,0.52
2023-02-04T06:40:08.956Z,0.60
2023-02-04T06:42:10.684Z,1.05
2023-02-04T06:44:12.228Z,0.50
2023-02-04T06:46:13.800Z,1.05
2023-02-04T06:48:15.421Z,0.70
2023-02-04T06:50:23.079Z,0.60
2023-02-04T06:52:24.623Z,0.60
2023-02-04T06:54:26.154Z,0.60
2023-02-04T06:56:30.503Z,0.98
2023-02-04T06:58:32.081Z,0.70
2023-02-04T07:00:34.121Z,0.40
2023-02-04T07:02:39.946Z,0.40
2023-02-04T07:04:43.796Z,0.47
2023-02-04T07:06:45.315Z,0.65
2023-02-04T07:08:47.548Z,1.10
2023-02-04T07:10:49.082Z,0.50
2023-02-04T07:12:50.627Z,0.40
2023-02-04T07:14:52.146Z,0.50
2023-02-04T07:16:53.668Z,0.50
2023-02-04T07:18:55.179Z,1.05
2023-02-04T07:20:59.730Z,0.60
2023-02-04T07:23:04.471Z,0.73
2023-02-04T07:25:15.075Z,0.57
2023-02-04T07:27:22.597Z,0.52
2023-02-04T07:29:42.904Z,0.60
2023-02-04T07:31:47.488Z,0.65
2023-02-04T07:33:54.896Z,0.60
2023-02-04T07:35:59.452Z,1.58
2023-02-04T07:38:00.921Z,0.73
2023-02-04T07:40:09.470Z,0.50
2023-02-04T07:42:17.324Z,0.80
2023-02-04T07:44:18.963Z,0.77
2023-02-04T07:46:23.508Z,0.68
2023-02-04T07:48:30.663Z,0.60
2023-02-04T07:52:42.538Z,1.20
2023-02-04T07:54:46.734Z,0.47
2023-02-04T07:56:54.222Z,0.60
2023-02-04T07:59:14.381Z,0.52
2023-02-04T08:03:20.056Z,0.50
2023-02-04T08:05:24.683Z,1.08
2023-02-04T08:07:26.318Z,1.58
2023-02-04T08:09:27.901Z,1.45
2023-02-04T08:11:29.463Z,1.00
2023-02-04T08:13:39.029Z,0.52
2023-02-04T08:18:01.292Z,0.80
2023-02-04T08:20:21.758Z,0.80
2023-02-04T08:22:23.457Z,0.70
2023-02-04T08:26:34.748Z,0.75
2023-02-04T08:28:55.131Z,0.45
2023-02-04T08:30:59.791Z,0.70
2023-02-04T08:33:04.562Z,1.00
2023-02-04T08:35:07.008Z,0.95
2023-02-04T08:37:08.833Z,0.90
2023-02-04T08:39:11.052Z,0.40
2023-02-04T08:41:15.920Z,0.45
2023-02-04T08:43:17.554Z,0.63
2023-02-04T08:45:22.008Z,0.47
2023-02-04T08:47:23.812Z,0.60
2023-02-04T08:49:28.014Z,0.75
2023-02-04T08:51:29.950Z,0.80
2023-02-04T08:53:37.804Z,0.77
2023-02-04T08:55:42.157Z,1.00
2023-02-04T08:57:43.627Z,0.95
2023-02-04T08:59:46.133Z,0.52
2023-02-04T09:02:06.647Z,0.68
2023-02-04T09:04:08.138Z,0.60
2023-02-04T09:06:10.002Z,0.98
2023-02-04T09:08:11.506Z,2.95
2023-02-04T09:10:12.921Z,1.50
2023-02-04T09:12:17.505Z,3.17
2023-02-04T09:14:21.946Z,1.45
2023-02-04T09:16:41.887Z,3.20
2023-02-04T09:18:43.592Z,1.95
2023-02-04T09:20:52.413Z,1.55
2023-02-04T09:23:13.264Z,13.45
2023-02-04T09:25:15.043Z,18.70
2023-02-04T09:27:16.864Z,28.92
2023-02-04T09:29:18.608Z,16.27
2023-02-04T09:31:23.027Z,6.38
2023-02-04T09:33:27.302Z,2.85
2023-02-04T09:35:31.672Z,1.40
2023-02-04T09:37:33.293Z,1.33
2023-02-04T09:39:34.985Z,2.78
2023-02-04T09:41:41.810Z,2.22
2023-02-04T09:43:46.450Z,5.47
2023-02-04T09:45:49.334Z,3.05
2023-02-04T09:47:54.343Z,2.28
2023-02-04T09:49:56.516Z,2.75
2023-02-04T09:52:00.916Z,4.82
2023-02-04T09:56:11.130Z,2.57
2023-02-04T09:58:19.988Z,1.40
2023-02-04T10:00:40.123Z,1.50
2023-02-04T10:02:41.695Z,2.95
2023-02-04T10:06:50.113Z,1.53
2023-02-04T10:08:54.740Z,1.60
2023-02-04T10:10:58.072Z,4.28
2023-02-04T10:13:02.919Z,2.42
2023-02-04T10:15:11.136Z,1.20
2023-02-04T10:17:18.049Z,1.25
2023-02-04T10:21:32.997Z,1.88
2023-02-04T10:23:34.965Z,1.65
2023-02-04T10:25:39.609Z,1.55
2023-02-04T10:27:48.495Z,2.10
2023-02-04T10:29:59.578Z,2.05
2023-02-04T10:32:01.224Z,1.35
2023-02-04T10:34:13.304Z,2.75
2023-02-04T10:36:16.290Z,1.90
2023-02-04T10:38:24.167Z,1.92
2023-02-04T10:40:44.608Z,0.95
2023-02-04T10:42:53.386Z,1.63
2023-02-04T10:44:55.453Z,1.23
2023-02-04T10:47:01.052Z,1.00
2023-02-04T10:49:06.390Z,1.67
2023-02-04T10:51:26.776Z,0.87
2023-02-04T10:53:50.525Z,0.95
2023-02-04T10:55:53.489Z,0.65
2023-02-04T10:57:55.234Z,1.10
2023-02-04T10:59:58.869Z,1.60
2023-02-04T11:02:16.573Z,1.98
2023-02-04T11:04:21.196Z,0.50
2023-02-04T11:06:24.236Z,0.57
2023-02-04T11:08:26.081Z,1.00
2023-02-04T11:10:34.704Z,0.40
2023-02-04T11:12:47.805Z,0.80
2023-02-04T11:14:57.190Z,0.75
2023-02-04T11:17:04.571Z,0.65
2023-02-04T11:21:35.041Z,0.63
2023-02-04T11:23:48.235Z,1.48
2023-02-04T11:26:16.502Z,1.45
2023-02-04T11:28:31.926Z,1.30
2023-02-04T11:30:42.613Z,0.57
2023-02-04T11:33:09.527Z,0.40
2023-02-04T11:35:24.460Z,0.70
2023-02-04T11:37:45.363Z,0.70
2023-02-04T11:39:59.089Z,1.10
2023-02-04T11:42:26.705Z,0.75
2023-02-04T11:44:44.761Z,0.60
2023-02-04T11:47:00.677Z,0.60
2023-02-04T11:49:26.754Z,0.57
2023-02-04T11:51:42.358Z,0.60
2023-02-04T11:53:57.939Z,0.88
2023-02-04T11:56:07.784Z,11.70
2023-02-04T11:58:17.025Z,4.55
2023-02-04T12:00:26.073Z,4.20
2023-02-04T12:02:27.576Z,13.07
2023-02-04T12:04:29.170Z,8.55
2023-02-04T12:06:37.201Z,7.60
2023-02-04T12:08:44.694Z,20.33
2023-02-04T12:10:49.523Z,11.52
2023-02-04T12:12:57.734Z,15.35
2023-02-04T12:15:13.553Z,16.60
2023-02-04T12:17:20.222Z,15.77
2023-02-04T12:19:22.172Z,9.02
2023-02-04T12:21:26.736Z,12.70
2023-02-04T12:23:31.131Z,1.83
2023-02-04T12:25:38.616Z,3.95
2023-02-04T12:27:40.205Z,5.32
2023-02-04T12:29:44.562Z,4.10
2023-02-04T12:31:52.051Z,12.32
2023-02-04T12:33:56.944Z,8.85
2023-02-04T12:35:58.414Z,10.65
2023-02-04T12:38:00.289Z,17.25
2023-02-04T12:40:04.975Z,13.45
2023-02-04T12:42:06.650Z,13.57
2023-02-04T12:44:15.390Z,8.48
2023-02-04T12:46:17.697Z,3.35
2023-02-04T12:48:19.297Z,2.30
2023-02-04T12:50:22.867Z,2.25
2023-02-04T12:52:43.142Z,9.70
2023-02-04T12:54:47.684Z,6.57
2023-02-04T12:56:58.262Z,11.23
2023-02-04T12:58:59.994Z,10.30
2023-02-04T13:01:04.775Z,6.20
2023-02-04T13:03:06.301Z,6.70
2023-02-04T13:05:08.202Z,2.20
2023-02-04T13:07:10.521Z,1.63
2023-02-04T13:09:30.910Z,1.23
2023-02-04T13:11:32.521Z,1.00
2023-02-04T13:13:34.161Z,1.00
2023-02-04T13:15:38.575Z,1.30
2023-02-04T13:17:46.113Z,0.95
2023-02-04T13:19:53.877Z,1.08
2023-02-04T13:21:55.521Z,3.47
2023-02-04T13:23:57.430Z,4.32
2023-02-04T13:26:01.828Z,2.10
2023-02-04T13:28:09.090Z,0.80
2023-02-04T13:30:11.907Z,0.93
2023-02-04T13:32:13.489Z,3.75
2023-02-04T13:34:15.118Z,4.95
2023-02-04T13:36:16.883Z,5.13
2023-02-04T13:38:18.531Z,3.75
2023-02-04T13:40:26.061Z,4.07
2023-02-04T13:42:27.582Z,4.97
2023-02-04T13:44:32.063Z,4.35
2023-02-04T13:46:33.991Z,2.80
2023-02-04T13:48:38.099Z,2.20
2023-02-04T13:50:39.806Z,2.08
2023-02-04T13:52:41.527Z,3.70
2023-02-04T13:54:43.023Z,5.47
2023-02-04T13:56:50.477Z,3.28
2023-02-04T13:58:58.483Z,1.08
2023-02-04T14:01:05.981Z,2.60
2023-02-04T14:03:07.495Z,1.40
2023-02-04T14:05:08.988Z,3.17
2023-02-04T14:07:10.876Z,2.58
2023-02-04T14:09:12.659Z,2.00
2023-02-04T14:11:14.718Z,2.55
2023-02-04T14:13:19.284Z,3.58
2023-02-04T14:15:26.838Z,1.80
2023-02-04T14:17:34.297Z,1.00
2023-02-04T14:19:42.138Z,1.20
2023-02-04T14:21:50.304Z,3.95
2023-02-04T14:23:55.860Z,5.38
2023-02-04T14:26:18.829Z,9.38
2023-02-04T14:28:35.422Z,4.57
2023-02-04T14:30:56.432Z,1.52
2023-02-04T14:33:13.576Z,1.75
2023-02-04T14:35:31.736Z,1.88
2023-02-04T14:37:47.144Z,2.25
2023-02-04T14:39:59.410Z,2.50
2023-02-04T14:42:16.862Z,2.22
2023-02-04T14:44:30.572Z,1.80
2023-02-04T14:46:54.463Z,1.45
2023-02-04T14:49:13.096Z,1.00
2023-02-04T14:51:33.890Z,1.40
2023-02-04T14:54:10.533Z,0.70
2023-02-04T14:56:27.709Z,0.80
2023-02-04T14:58:45.173Z,0.80
2023-02-04T15:01:05.548Z,1.20
2023-02-04T15:03:07.178Z,0.65
2023-02-04T15:05:15.330Z,1.30
2023-02-04T15:07:22.868Z,1.60
2023-02-04T15:09:24.753Z,0.93
2023-02-04T15:11:26.242Z,0.90
2023-02-04T15:13:33.410Z,0.70
2023-02-04T15:15:38.126Z,0.93
2023-02-04T15:17:39.892Z,0.80
2023-02-04T15:19:41.440Z,1.10
2023-02-04T15:21:45.902Z,0.90
2023-02-04T15:23:53.559Z,1.60
2023-02-04T15:25:58.050Z,0.63
2023-02-04T15:27:59.595Z,0.95
2023-02-04T15:30:04.392Z,0.70
2023-02-04T15:32:09.891Z,0.95
2023-02-04T15:34:17.516Z,0.85
2023-02-04T15:36:22.120Z,0.95
2023-02-04T15:38:23.981Z,1.63
2023-02-04T15:40:43.960Z,1.45
2023-02-04T15:42:53.041Z,1.85
2023-02-04T15:44:54.523Z,1.98
2023-02-04T15:46:56.046Z,3.58
2023-02-04T15:49:01.088Z,3.47
2023-02-04T15:51:03.191Z,1.70
2023-02-04T15:53:07.687Z,2.05
2023-02-04T15:55:12.239Z,2.30
2023-02-04T15:57:13.709Z,1.77
2023-02-04T15:59:20.970Z,2.05
2023-02-04T16:01:25.614Z,1.58
2023-02-04T16:03:27.477Z,1.85
2023-02-04T16:05:31.964Z,1.50
2023-02-04T16:07:36.116Z,1.42
2023-02-04T16:11:44.821Z,0.95
2023-02-04T16:13:46.494Z,1.02
2023-02-04T16:15:51.068Z,1.48
2023-02-04T16:19:58.551Z,1.30
2023-02-04T16:22:00.247Z,1.75
2023-02-04T16:24:21.284Z,1.58
2023-02-04T16:26:27.284Z,1.77
2023-02-04T16:28:29.340Z,1.50
2023-02-04T16:30:30.990Z,1.80
2023-02-04T16:32:37.179Z,2.00
2023-02-04T16:34:39.114Z,1.85
2023-02-04T16:36:40.710Z,1.92
2023-02-04T16:39:02.913Z,1.88
2023-02-04T16:41:04.952Z,2.08
2023-02-04T16:43:12.509Z,2.15
2023-02-04T16:45:14.124Z,1.90
2023-02-04T16:47:23.518Z,1.73
2023-02-04T16:49:25.004Z,1.90
2023-02-04T16:51:26.888Z,2.90
2023-02-04T16:53:28.417Z,1.88
2023-02-04T16:58:07.124Z,1.70
2023-02-04T17:00:16.695Z,2.15
2023-02-04T17:04:45.165Z,1.70
2023-02-04T17:06:59.504Z,2.63
2023-02-04T17:09:13.053Z,2.63
2023-02-04T17:11:30.929Z,4.03
2023-02-04T17:13:35.332Z,3.20
2023-02-04T17:15:36.881Z,2.92
2023-02-04T17:17:41.100Z,2.30
2023-02-04T17:19:42.564Z,3.15
2023-02-04T17:23:51.267Z,1.75
2023-02-04T17:25:52.968Z,2.00
2023-02-04T17:27:56.045Z,2.65
2023-02-04T17:30:00.198Z,1.75
2023-02-04T17:32:01.872Z,1.92
2023-02-04T17:34:03.587Z,1.75
2023-02-04T17:36:07.944Z,1.80
2023-02-04T17:38:09.507Z,2.60
2023-02-04T17:40:13.947Z,1.88
2023-02-04T17:42:15.510Z,2.83
2023-02-04T17:44:20.084Z,2.90
2023-02-04T17:46:24.733Z,4.03
2023-02-04T17:48:28.924Z,4.15
2023-02-04T17:50:30.814Z,3.75
2023-02-04T17:52:33.618Z,4.97
2023-02-04T17:54:41.211Z,7.63
2023-02-04T17:56:42.663Z,6.45
2023-02-04T17:58:50.153Z,6.38
2023-02-04T18:00:56.209Z,7.15
2023-02-04T18:02:58.027Z,8.63
2023-02-04T18:05:12.482Z,8.27
2023-02-04T18:07:16.797Z,7.38
2023-02-04T18:09:18.745Z,7.70
2023-02-04T18:11:20.239Z,9.80
2023-02-04T18:13:25.464Z,10.57
2023-02-04T18:15:32.089Z,15.63
2023-02-04T18:17:36.532Z,18.67
2023-02-04T18:19:40.477Z,15.63
2023-02-04T18:21:41.908Z,13.05
2023-02-04T18:24:11.136Z,13.07
2023-02-04T18:26:16.670Z,9.85
2023-02-04T18:28:19.820Z,7.25
2023-02-04T18:30:27.819Z,5.47
2023-02-04T18:32:33.699Z,4.05
2023-02-04T18:34:43.863Z,3.05
2023-02-04T18:36:48.585Z,3.83
2023-02-04T18:38:50.378Z,3.65
2023-02-04T18:41:13.983Z,3.83
2023-02-04T18:43:26.261Z,2.78
2023-02-04T18:45:31.669Z,3.17
2023-02-04T18:47:34.011Z,3.60
2023-02-04T18:49:39.751Z,3.40
2023-02-04T18:51:43.704Z,2.90
2023-02-04T18:53:45.267Z,2.72
2023-02-04T18:55:50.880Z,3.20
2023-02-04T18:57:52.419Z,3.10
2023-02-04T19:00:19.749Z,2.70
2023-02-04T19:02:50.093Z,3.38
2023-02-04T19:04:53.398Z,3.05
2023-02-04T19:07:06.263Z,2.45
2023-02-04T19:09:13.587Z,2.95
2023-02-04T19:11:37.182Z,2.80
2023-02-04T19:13:39.824Z,2.22
2023-02-04T19:15:44.965Z,3.47
2023-02-04T19:17:46.774Z,3.17
2023-02-04T19:20:07.165Z,2.67
2023-02-04T19:22:17.673Z,2.80
2023-02-04T19:24:23.553Z,3.63
2023-02-04T19:26:28.815Z,2.95
2023-02-04T19:28:36.106Z,2.53
2023-02-04T19:30:44.050Z,2.92
2023-02-04T19:32:46.042Z,2.40
2023-02-04T19:34:52.737Z,3.10
2023-02-04T19:36:55.399Z,2.05
2023-02-04T19:39:01.604Z,2.42
2023-02-04T19:41:03.061Z,3.35
2023-02-04T19:43:07.771Z,3.10
2023-02-04T19:45:19.928Z,3.22
2023-02-04T19:47:42.064Z,3.50
2023-02-04T19:49:43.768Z,3.15
2023-02-04T19:51:50.752Z,2.67
2023-02-04T19:54:00.117Z,2.78
2023-02-04T19:56:23.393Z,2.78
2023-02-04T19:58:28.953Z,2.53
2023-02-04T20:00:37.845Z,2.90
2023-02-04T20:02:41.335Z,2.75
2023-02-04T20:04:56.466Z,2.42
2023-02-04T20:07:08.168Z,2.28
2023-02-04T20:09:39.954Z,3.20
2023-02-04T20:11:55.137Z,3.10
2023-02-04T20:14:23.745Z,2.88
2023-02-04T20:17:00.386Z,2.75
2023-02-04T20:19:15.220Z,2.70
2023-02-04T20:21:18.963Z,3.78
2023-02-04T20:23:34.164Z,3.58
2023-02-04T20:25:50.335Z,2.53
2023-02-04T20:28:05.288Z,2.70
2023-02-04T20:30:12.201Z,2.67
2023-02-04T20:32:32.259Z,3.38
2023-02-04T20:34:38.868Z,4.53
2023-02-04T20:36:42.435Z,3.95
2023-02-04T20:38:44.810Z,4.18
2023-02-04T20:40:49.143Z,5.18
2023-02-04T20:42:52.921Z,6.13
2023-02-04T20:45:01.927Z,5.70
2023-02-04T20:47:25.487Z,5.82
2023-02-04T20:49:29.838Z,5.80
2023-02-04T20:51:35.518Z,6.22
2023-02-04T20:53:40.894Z,7.45
2023-02-04T20:55:46.241Z,5.70
2023-02-04T20:58:13.944Z,4.43
2023-02-04T21:00:39.105Z,3.78
2023-02-04T21:02:43.185Z,5.70
2023-02-04T21:05:19.566Z,4.63
2023-02-04T21:07:22.174Z,3.08
2023-02-04T21:09:24.732Z,3.30
2023-02-04T21:11:44.977Z,2.97
2023-02-04T21:15:50.664Z,3.00
2023-02-04T21:18:10.638Z,2.58
2023-02-04T21:20:15.158Z,2.80
2023-02-04T21:22:16.580Z,2.53
2023-02-04T21:24:36.620Z,2.58
2023-02-04T21:26:38.022Z,3.03
2023-02-04T21:28:39.670Z,2.60
2023-02-04T21:32:48.117Z,2.88
2023-02-04T21:34:49.515Z,2.47
2023-02-04T21:38:58.261Z,2.73
2023-02-04T21:40:59.717Z,2.80
2023-02-04T21:43:19.735Z,2.38
2023-02-04T21:45:24.524Z,3.63
2023-02-04T21:47:26.213Z,3.72
2023-02-04T21:49:27.749Z,6.35
2023-02-04T21:51:47.680Z,5.85
2023-02-04T21:53:55.097Z,6.82
2023-02-04T21:56:15.476Z,4.05
2023-02-04T21:58:16.913Z,3.95
2023-02-04T22:00:23.704Z,3.83
2023-02-04T22:02:44.268Z,3.35
2023-02-04T22:04:48.792Z,3.25
2023-02-04T22:06:53.226Z,2.92
2023-02-04T22:08:54.660Z,3.05
2023-02-04T22:10:56.898Z,2.90
2023-02-04T22:12:58.361Z,3.97
2023-02-04T22:17:08.816Z,3.38
2023-02-04T22:19:10.225Z,3.13
2023-02-04T22:21:11.683Z,4.45
2023-02-04T22:23:13.140Z,4.18
2023-02-04T22:27:19.313Z,3.60
2023-02-04T22:29:28.697Z,4.32
2023-02-04T22:31:30.146Z,3.80
2023-02-04T22:33:34.200Z,4.65
2023-02-04T22:35:36.835Z,5.50
2023-02-04T22:37:39.218Z,5.68
2023-02-04T22:39:40.666Z,4.80
2023-02-04T22:41:45.076Z,4.47
2023-02-04T22:43:46.529Z,4.88
2023-02-04T22:45:48.055Z,4.30
2023-02-04T22:49:53.495Z,3.90
2023-02-04T22:51:58.800Z,4.20
2023-02-04T22:54:03.056Z,4.55
2023-02-04T22:56:07.377Z,4.25
2023-02-04T22:58:11.759Z,5.45
2023-02-04T23:00:18.987Z,3.88
2023-02-04T23:02:23.416Z,4.03
2023-02-04T23:04:24.922Z,3.75
2023-02-04T23:06:31.375Z,3.70
2023-02-04T23:08:41.199Z,4.05
2023-02-04T23:10:54.619Z,4.30
2023-02-04T23:13:12.744Z,4.03
2023-02-04T23:15:37.771Z,4.20
2023-02-04T23:18:05.278Z,4.20
2023-02-04T23:20:17.137Z,5.70
2023-02-04T23:22:41.115Z,4.15
2023-02-04T23:24:51.662Z,5.10
2023-02-04T23:27:04.347Z,4.60
2023-02-04T23:29:17.380Z,4.40
2023-02-04T23:31:27.486Z,4.85
2023-02-04T23:33:39.815Z,5.55
2023-02-04T23:35:52.130Z,5.93
2023-02-04T23:38:07.818Z,7.28
2023-02-04T23:40:13.194Z,6.10
2023-02-04T23:42:14.673Z,5.90
2023-02-04T23:44:19.159Z,6.70
2023-02-04T23:46:23.718Z,5.85
2023-02-04T23:48:28.353Z,5.10
2023-02-04T23:50:32.996Z,5.03
2023-02-04T23:52:34.399Z,4.97
2023-02-04T23:54:35.946Z,6.30
2023-02-04T23:56:39.944Z,5.25
2023-02-04T23:58:41.421Z,5.93
